sensor_id;sensor_type;location;lat;lon;timestamp;temperature;humidity
11597;DHT22;5854;48.072;16.286;2022-07-01T00:00:12;28.10;52.80
11597;DHT22;5854;48.072;16.286;2022-07-01T00:02:39;28.00;52.50
11597;DHT22;5854;48.072;16.286;2022-07-01T00:05:07;28.00;52.50
11597;DHT22;5854;48.072;16.286;2022-07-01T00:07:34;28.10;52.40
11597;DHT22;5854;48.072;16.286;2022-07-01T00:10:03;28.00;52.20
11597;DHT22;5854;48.072;16.286;2022-07-01T00:12:31;28.00;52.40
11597;DHT22;5854;48.072;16.286;2022-07-01T00:14:59;28.00;52.50
11597;DHT22;5854;48.072;16.286;2022-07-01T00:17:26;28.00;52.90
11597;DHT22;5854;48.072;16.286;2022-07-01T00:19:53;27.90;52.20
11597;DHT22;5854;48.072;16.286;2022-07-01T00:22:21;27.80;52.30
11597;DHT22;5854;48.072;16.286;2022-07-01T00:24:48;27.40;52.70
11597;DHT22;5854;48.072;16.286;2022-07-01T00:27:15;27.40;53.60
11597;DHT22;5854;48.072;16.286;2022-07-01T00:29:42;27.70;52.40
11597;DHT22;5854;48.072;16.286;2022-07-01T00:32:11;27.80;52.30
11597;DHT22;5854;48.072;16.286;2022-07-01T00:34:39;27.90;51.60
11597;DHT22;5854;48.072;16.286;2022-07-01T00:37:06;27.80;52.00
11597;DHT22;5854;48.072;16.286;2022-07-01T00:39:33;27.80;51.90
11597;DHT22;5854;48.072;16.286;2022-07-01T00:42:01;27.70;52.20
11597;DHT22;5854;48.072;16.286;2022-07-01T00:44:30;27.70;51.80
11597;DHT22;5854;48.072;16.286;2022-07-01T00:47:01;27.90;51.60
11597;DHT22;5854;48.072;16.286;2022-07-01T00:49:31;27.80;51.60
11597;DHT22;5854;48.072;16.286;2022-07-01T00:51:59;27.80;51.30
11597;DHT22;5854;48.072;16.286;2022-07-01T00:54:26;27.70;51.60
11597;DHT22;5854;48.072;16.286;2022-07-01T00:56:53;27.80;51.70
11597;DHT22;5854;48.072;16.286;2022-07-01T00:59:20;27.90;51.50
11597;DHT22;5854;48.072;16.286;2022-07-01T01:01:47;27.70;51.80
11597;DHT22;5854;48.072;16.286;2022-07-01T01:04:15;27.80;51.60
11597;DHT22;5854;48.072;16.286;2022-07-01T01:06:43;27.80;51.40
11597;DHT22;5854;48.072;16.286;2022-07-01T01:09:10;27.70;51.40
11597;DHT22;5854;48.072;16.286;2022-07-01T01:11:38;27.60;51.70
11597;DHT22;5854;48.072;16.286;2022-07-01T01:14:06;27.70;51.70
11597;DHT22;5854;48.072;16.286;2022-07-01T01:16:33;27.50;51.90
11597;DHT22;5854;48.072;16.286;2022-07-01T01:19:04;27.50;51.70
11597;DHT22;5854;48.072;16.286;2022-07-01T01:21:33;27.50;51.90
11597;DHT22;5854;48.072;16.286;2022-07-01T01:24:00;27.40;51.60
11597;DHT22;5854;48.072;16.286;2022-07-01T01:26:28;27.50;51.90
11597;DHT22;5854;48.072;16.286;2022-07-01T01:28:55;27.60;50.90
11597;DHT22;5854;48.072;16.286;2022-07-01T01:31:27;27.60;50.80
11597;DHT22;5854;48.072;16.286;2022-07-01T01:33:56;27.60;51.40
11597;DHT22;5854;48.072;16.286;2022-07-01T01:36:23;27.60;51.00
11597;DHT22;5854;48.072;16.286;2022-07-01T01:38:52;27.50;51.50
11597;DHT22;5854;48.072;16.286;2022-07-01T01:41:20;27.40;50.80
11597;DHT22;5854;48.072;16.286;2022-07-01T01:43:47;27.30;52.30
11597;DHT22;5854;48.072;16.286;2022-07-01T01:46:14;27.30;51.80
11597;DHT22;5854;48.072;16.286;2022-07-01T01:48:41;27.30;52.20
11597;DHT22;5854;48.072;16.286;2022-07-01T01:51:08;27.30;51.70
11597;DHT22;5854;48.072;16.286;2022-07-01T01:53:36;27.30;52.30
11597;DHT22;5854;48.072;16.286;2022-07-01T01:56:04;27.30;52.30
11597;DHT22;5854;48.072;16.286;2022-07-01T01:58:32;27.40;52.00
11597;DHT22;5854;48.072;16.286;2022-07-01T02:00:59;27.20;52.50
11597;DHT22;5854;48.072;16.286;2022-07-01T02:03:27;27.20;52.70
11597;DHT22;5854;48.072;16.286;2022-07-01T02:05:55;27.10;52.80
11597;DHT22;5854;48.072;16.286;2022-07-01T02:08:22;27.10;52.60
11597;DHT22;5854;48.072;16.286;2022-07-01T02:10:49;27.10;52.70
11597;DHT22;5854;48.072;16.286;2022-07-01T02:13:18;27.00;52.50
11597;DHT22;5854;48.072;16.286;2022-07-01T02:15:45;26.90;52.50
11597;DHT22;5854;48.072;16.286;2022-07-01T02:18:12;26.90;52.60
11597;DHT22;5854;48.072;16.286;2022-07-01T02:20:39;26.30;54.30
11597;DHT22;5854;48.072;16.286;2022-07-01T02:23:07;25.70;57.00
11597;DHT22;5854;48.072;16.286;2022-07-01T02:25:34;25.20;58.80
11597;DHT22;5854;48.072;16.286;2022-07-01T02:28:02;25.30;59.10
11597;DHT22;5854;48.072;16.286;2022-07-01T02:30:31;25.70;57.80
11597;DHT22;5854;48.072;16.286;2022-07-01T02:33:01;26.10;56.50
11597;DHT22;5854;48.072;16.286;2022-07-01T02:35:29;26.40;55.50
11597;DHT22;5854;48.072;16.286;2022-07-01T02:37:56;26.50;54.80
11597;DHT22;5854;48.072;16.286;2022-07-01T02:40:24;26.70;54.20
11597;DHT22;5854;48.072;16.286;2022-07-01T02:42:51;26.80;53.80
11597;DHT22;5854;48.072;16.286;2022-07-01T02:45:18;26.80;54.00
11597;DHT22;5854;48.072;16.286;2022-07-01T02:47:47;26.80;53.60
11597;DHT22;5854;48.072;16.286;2022-07-01T02:50:14;26.70;54.70
11597;DHT22;5854;48.072;16.286;2022-07-01T02:52:42;26.70;53.90
11597;DHT22;5854;48.072;16.286;2022-07-01T02:55:11;26.80;53.60
11597;DHT22;5854;48.072;16.286;2022-07-01T02:57:39;26.70;54.70
11597;DHT22;5854;48.072;16.286;2022-07-01T03:00:09;26.80;54.10
11597;DHT22;5854;48.072;16.286;2022-07-01T03:02:38;26.70;53.70
11597;DHT22;5854;48.072;16.286;2022-07-01T03:05:08;26.80;53.60
11597;DHT22;5854;48.072;16.286;2022-07-01T03:07:36;26.80;53.10
11597;DHT22;5854;48.072;16.286;2022-07-01T03:10:04;26.80;53.30
11597;DHT22;5854;48.072;16.286;2022-07-01T03:12:32;26.60;53.90
11597;DHT22;5854;48.072;16.286;2022-07-01T03:15:02;26.50;54.10
11597;DHT22;5854;48.072;16.286;2022-07-01T03:17:31;26.70;53.50
11597;DHT22;5854;48.072;16.286;2022-07-01T03:20:00;26.60;53.90
11597;DHT22;5854;48.072;16.286;2022-07-01T03:22:31;26.50;54.20
11597;DHT22;5854;48.072;16.286;2022-07-01T03:24:58;26.60;53.80
11597;DHT22;5854;48.072;16.286;2022-07-01T03:27:26;26.60;54.00
11597;DHT22;5854;48.072;16.286;2022-07-01T03:29:54;26.50;55.00
11597;DHT22;5854;48.072;16.286;2022-07-01T03:32:21;26.40;54.40
11597;DHT22;5854;48.072;16.286;2022-07-01T03:34:50;26.40;54.30
11597;DHT22;5854;48.072;16.286;2022-07-01T03:37:19;26.60;53.90
11597;DHT22;5854;48.072;16.286;2022-07-01T03:39:49;26.50;55.60
11597;DHT22;5854;48.072;16.286;2022-07-01T03:42:17;26.50;54.30
11597;DHT22;5854;48.072;16.286;2022-07-01T03:44:44;26.30;56.10
11597;DHT22;5854;48.072;16.286;2022-07-01T03:47:12;26.10;56.60
11597;DHT22;5854;48.072;16.286;2022-07-01T03:49:39;26.10;56.50
11597;DHT22;5854;48.072;16.286;2022-07-01T03:52:06;26.10;55.30
11597;DHT22;5854;48.072;16.286;2022-07-01T03:54:33;26.40;54.60
11597;DHT22;5854;48.072;16.286;2022-07-01T03:57:06;26.40;54.30
11597;DHT22;5854;48.072;16.286;2022-07-01T03:59:36;26.50;54.00
11597;DHT22;5854;48.072;16.286;2022-07-01T04:02:05;26.40;55.80
11597;DHT22;5854;48.072;16.286;2022-07-01T04:04:34;26.20;57.00
11597;DHT22;5854;48.072;16.286;2022-07-01T04:07:04;26.20;55.10
11597;DHT22;5854;48.072;16.286;2022-07-01T04:09:32;26.30;56.40
11597;DHT22;5854;48.072;16.286;2022-07-01T04:12:00;26.30;56.40
11597;DHT22;5854;48.072;16.286;2022-07-01T04:14:29;26.10;57.60
11597;DHT22;5854;48.072;16.286;2022-07-01T04:16:57;26.30;54.60
11597;DHT22;5854;48.072;16.286;2022-07-01T04:19:24;26.40;55.00
11597;DHT22;5854;48.072;16.286;2022-07-01T04:21:52;26.50;54.10
11597;DHT22;5854;48.072;16.286;2022-07-01T04:24:36;26.50;56.20
11597;DHT22;5854;48.072;16.286;2022-07-01T04:27:04;26.40;54.90
11597;DHT22;5854;48.072;16.286;2022-07-01T04:29:32;26.40;53.30
11597;DHT22;5854;48.072;16.286;2022-07-01T04:32:03;26.30;53.70
11597;DHT22;5854;48.072;16.286;2022-07-01T04:37:06;26.40;54.00
11597;DHT22;5854;48.072;16.286;2022-07-01T04:39:33;26.50;53.50
11597;DHT22;5854;48.072;16.286;2022-07-01T04:42:00;26.50;53.10
11597;DHT22;5854;48.072;16.286;2022-07-01T04:44:29;26.50;51.50
11597;DHT22;5854;48.072;16.286;2022-07-01T04:46:59;26.60;52.50
11597;DHT22;5854;48.072;16.286;2022-07-01T04:49:28;26.60;53.90
11597;DHT22;5854;48.072;16.286;2022-07-01T04:54:30;26.70;52.00
11597;DHT22;5854;48.072;16.286;2022-07-01T04:56:57;26.80;52.20
11597;DHT22;5854;48.072;16.286;2022-07-01T05:04:36;27.00;51.50
11597;DHT22;5854;48.072;16.286;2022-07-01T05:07:05;27.00;51.70
11597;DHT22;5854;48.072;16.286;2022-07-01T05:09:52;27.00;51.50
11597;DHT22;5854;48.072;16.286;2022-07-01T05:14:53;27.30;50.90
11597;DHT22;5854;48.072;16.286;2022-07-01T05:17:23;27.30;50.70
11597;DHT22;5854;48.072;16.286;2022-07-01T05:20:12;27.40;51.10
11597;DHT22;5854;48.072;16.286;2022-07-01T05:22:51;27.40;50.00
11597;DHT22;5854;48.072;16.286;2022-07-01T05:25:19;27.30;49.20
11597;DHT22;5854;48.072;16.286;2022-07-01T05:27:47;27.50;48.80
11597;DHT22;5854;48.072;16.286;2022-07-01T05:30:15;27.40;48.30
11597;DHT22;5854;48.072;16.286;2022-07-01T05:32:42;27.40;48.60
11597;DHT22;5854;48.072;16.286;2022-07-01T05:35:11;27.40;48.60
11597;DHT22;5854;48.072;16.286;2022-07-01T05:37:40;27.40;47.30
11597;DHT22;5854;48.072;16.286;2022-07-01T05:40:08;27.40;48.10
11597;DHT22;5854;48.072;16.286;2022-07-01T05:42:36;27.40;48.50
11597;DHT22;5854;48.072;16.286;2022-07-01T05:45:04;27.30;48.60
11597;DHT22;5854;48.072;16.286;2022-07-01T05:47:31;27.00;46.40
11597;DHT22;5854;48.072;16.286;2022-07-01T05:49:58;26.90;46.30
11597;DHT22;5854;48.072;16.286;2022-07-01T05:52:27;26.70;45.30
11597;DHT22;5854;48.072;16.286;2022-07-01T05:54:54;26.60;46.50
11597;DHT22;5854;48.072;16.286;2022-07-01T05:57:21;26.50;46.70
11597;DHT22;5854;48.072;16.286;2022-07-01T05:59:48;26.60;46.40
11597;DHT22;5854;48.072;16.286;2022-07-01T06:12:37;26.60;46.10
11597;DHT22;5854;48.072;16.286;2022-07-01T06:15:06;27.00;45.60
11597;DHT22;5854;48.072;16.286;2022-07-01T06:17:36;27.40;44.50
11597;DHT22;5854;48.072;16.286;2022-07-01T06:22:39;28.10;43.30
11597;DHT22;5854;48.072;16.286;2022-07-01T06:25:08;28.40;42.70
11597;DHT22;5854;48.072;16.286;2022-07-01T06:27:39;28.40;42.30
11597;DHT22;5854;48.072;16.286;2022-07-01T06:30:07;28.60;41.90
11597;DHT22;5854;48.072;16.286;2022-07-01T06:32:36;28.60;41.70
11597;DHT22;5854;48.072;16.286;2022-07-01T06:35:04;28.60;41.60
11597;DHT22;5854;48.072;16.286;2022-07-01T06:37:32;28.80;41.40
11597;DHT22;5854;48.072;16.286;2022-07-01T06:42:38;29.40;40.50
11597;DHT22;5854;48.072;16.286;2022-07-01T06:45:06;29.50;40.50
11597;DHT22;5854;48.072;16.286;2022-07-01T06:47:34;29.20;40.50
11597;DHT22;5854;48.072;16.286;2022-07-01T06:52:44;29.40;40.70
11597;DHT22;5854;48.072;16.286;2022-07-01T06:55:11;29.40;40.40
11597;DHT22;5854;48.072;16.286;2022-07-01T06:57:40;29.60;40.50
11597;DHT22;5854;48.072;16.286;2022-07-01T07:00:08;30.10;39.90
11597;DHT22;5854;48.072;16.286;2022-07-01T07:02:36;30.10;39.80
11597;DHT22;5854;48.072;16.286;2022-07-01T07:05:05;30.20;39.50
11597;DHT22;5854;48.072;16.286;2022-07-01T07:10:02;30.50;38.70
11597;DHT22;5854;48.072;16.286;2022-07-01T07:12:30;30.60;38.40
11597;DHT22;5854;48.072;16.286;2022-07-01T07:14:59;30.90;38.10
11597;DHT22;5854;48.072;16.286;2022-07-01T07:17:26;31.10;38.40
11597;DHT22;5854;48.072;16.286;2022-07-01T07:19:54;31.30;37.80
11597;DHT22;5854;48.072;16.286;2022-07-01T07:22:23;31.30;38.00
11597;DHT22;5854;48.072;16.286;2022-07-01T07:24:50;31.40;37.50
11597;DHT22;5854;48.072;16.286;2022-07-01T07:27:19;31.50;37.40
11597;DHT22;5854;48.072;16.286;2022-07-01T07:29:47;31.80;37.10
11597;DHT22;5854;48.072;16.286;2022-07-01T07:32:43;31.80;36.90
11597;DHT22;5854;48.072;16.286;2022-07-01T07:35:12;31.80;37.20
11597;DHT22;5854;48.072;16.286;2022-07-01T07:37:42;30.90;37.90
11597;DHT22;5854;48.072;16.286;2022-07-01T07:40:14;30.80;38.70
11597;DHT22;5854;48.072;16.286;2022-07-01T07:45:19;30.80;38.80
11597;DHT22;5854;48.072;16.286;2022-07-01T07:47:49;30.80;39.10
11597;DHT22;5854;48.072;16.286;2022-07-01T07:50:16;30.50;39.70
11597;DHT22;5854;48.072;16.286;2022-07-01T07:52:44;29.80;41.00
11597;DHT22;5854;48.072;16.286;2022-07-01T07:55:11;29.80;41.20
11597;DHT22;5854;48.072;16.286;2022-07-01T07:57:39;29.90;40.90
11597;DHT22;5854;48.072;16.286;2022-07-01T08:00:13;29.40;42.50
11597;DHT22;5854;48.072;16.286;2022-07-01T08:02:43;28.80;43.10
11597;DHT22;5854;48.072;16.286;2022-07-01T08:05:21;28.70;43.90
11597;DHT22;5854;48.072;16.286;2022-07-01T08:07:50;28.50;44.10
11597;DHT22;5854;48.072;16.286;2022-07-01T08:10:19;28.40;45.50
11597;DHT22;5854;48.072;16.286;2022-07-01T08:12:47;28.50;45.10
11597;DHT22;5854;48.072;16.286;2022-07-01T08:15:25;28.50;44.60
11597;DHT22;5854;48.072;16.286;2022-07-01T08:17:52;28.50;45.00
11597;DHT22;5854;48.072;16.286;2022-07-01T08:20:21;28.50;44.90
11597;DHT22;5854;48.072;16.286;2022-07-01T08:22:49;28.50;44.60
11597;DHT22;5854;48.072;16.286;2022-07-01T08:25:17;28.50;44.90
11597;DHT22;5854;48.072;16.286;2022-07-01T08:27:44;28.50;45.00
11597;DHT22;5854;48.072;16.286;2022-07-01T08:30:11;28.50;45.00
11597;DHT22;5854;48.072;16.286;2022-07-01T08:32:39;28.50;44.90
11597;DHT22;5854;48.072;16.286;2022-07-01T08:35:07;28.60;44.50
11597;DHT22;5854;48.072;16.286;2022-07-01T08:37:36;28.60;44.70
11597;DHT22;5854;48.072;16.286;2022-07-01T08:40:04;28.60;44.20
11597;DHT22;5854;48.072;16.286;2022-07-01T08:42:32;28.40;44.40
11597;DHT22;5854;48.072;16.286;2022-07-01T08:44:59;28.60;44.00
11597;DHT22;5854;48.072;16.286;2022-07-01T08:47:26;28.60;43.90
11597;DHT22;5854;48.072;16.286;2022-07-01T08:49:53;28.60;43.60
11597;DHT22;5854;48.072;16.286;2022-07-01T08:52:20;28.80;44.30
11597;DHT22;5854;48.072;16.286;2022-07-01T08:54:49;29.00;43.80
11597;DHT22;5854;48.072;16.286;2022-07-01T08:57:20;29.10;43.30
11597;DHT22;5854;48.072;16.286;2022-07-01T09:00:00;29.10;43.60
11597;DHT22;5854;48.072;16.286;2022-07-01T09:02:30;29.00;44.60
11597;DHT22;5854;48.072;16.286;2022-07-01T09:05:15;29.10;44.50
11597;DHT22;5854;48.072;16.286;2022-07-01T09:07:43;29.00;43.40
11597;DHT22;5854;48.072;16.286;2022-07-01T09:10:16;28.90;43.10
11597;DHT22;5854;48.072;16.286;2022-07-01T09:12:45;28.80;43.10
11597;DHT22;5854;48.072;16.286;2022-07-01T09:15:20;28.70;43.30
11597;DHT22;5854;48.072;16.286;2022-07-01T09:17:50;28.80;43.20
11597;DHT22;5854;48.072;16.286;2022-07-01T09:20:30;29.10;44.30
11597;DHT22;5854;48.072;16.286;2022-07-01T09:22:59;29.30;43.30
11597;DHT22;5854;48.072;16.286;2022-07-01T09:25:33;29.30;43.50
11597;DHT22;5854;48.072;16.286;2022-07-01T09:28:11;29.30;43.10
11597;DHT22;5854;48.072;16.286;2022-07-01T09:30:41;29.40;42.80
11597;DHT22;5854;48.072;16.286;2022-07-01T09:33:11;29.60;44.40
11597;DHT22;5854;48.072;16.286;2022-07-01T09:35:40;29.80;43.30
11597;DHT22;5854;48.072;16.286;2022-07-01T09:38:11;29.80;41.20
11597;DHT22;5854;48.072;16.286;2022-07-01T09:40:50;30.20;41.10
11597;DHT22;5854;48.072;16.286;2022-07-01T09:43:21;30.50;40.50
11597;DHT22;5854;48.072;16.286;2022-07-01T09:45:54;30.60;40.00
11597;DHT22;5854;48.072;16.286;2022-07-01T09:48:24;30.70;40.10
11597;DHT22;5854;48.072;16.286;2022-07-01T09:50:53;30.80;40.20
11597;DHT22;5854;48.072;16.286;2022-07-01T09:53:20;30.70;40.50
11597;DHT22;5854;48.072;16.286;2022-07-01T09:55:49;30.80;39.90
11597;DHT22;5854;48.072;16.286;2022-07-01T09:58:17;30.60;40.80
11597;DHT22;5854;48.072;16.286;2022-07-01T10:00:44;30.70;40.20
11597;DHT22;5854;48.072;16.286;2022-07-01T10:03:12;30.70;40.10
11597;DHT22;5854;48.072;16.286;2022-07-01T10:05:45;30.60;40.50
11597;DHT22;5854;48.072;16.286;2022-07-01T10:08:32;30.50;40.90
11597;DHT22;5854;48.072;16.286;2022-07-01T10:11:40;30.40;42.00
11597;DHT22;5854;48.072;16.286;2022-07-01T10:14:17;30.50;41.40
11597;DHT22;5854;48.072;16.286;2022-07-01T10:16:46;30.50;40.80
11597;DHT22;5854;48.072;16.286;2022-07-01T10:19:30;30.60;40.50
11597;DHT22;5854;48.072;16.286;2022-07-01T10:22:01;30.50;40.20
11597;DHT22;5854;48.072;16.286;2022-07-01T10:24:48;30.50;40.20
11597;DHT22;5854;48.072;16.286;2022-07-01T10:27:21;30.60;40.10
11597;DHT22;5854;48.072;16.286;2022-07-01T10:29:51;30.80;40.50
11597;DHT22;5854;48.072;16.286;2022-07-01T10:32:47;30.90;39.20
11597;DHT22;5854;48.072;16.286;2022-07-01T10:35:15;31.00;40.10
11597;DHT22;5854;48.072;16.286;2022-07-01T10:37:58;31.10;40.50
11597;DHT22;5854;48.072;16.286;2022-07-01T10:40:42;31.20;39.10
11597;DHT22;5854;48.072;16.286;2022-07-01T10:43:15;31.30;39.30
11597;DHT22;5854;48.072;16.286;2022-07-01T10:45:43;31.40;38.80
11597;DHT22;5854;48.072;16.286;2022-07-01T10:48:21;31.40;38.80
11597;DHT22;5854;48.072;16.286;2022-07-01T10:53:57;31.50;39.40
11597;DHT22;5854;48.072;16.286;2022-07-01T11:19:49;31.40;38.10
11597;DHT22;5854;48.072;16.286;2022-07-01T11:22:20;31.70;37.60
11597;DHT22;5854;48.072;16.286;2022-07-01T11:42:29;36.20;31.60
11597;DHT22;5854;48.072;16.286;2022-07-01T12:03:11;35.20;33.10
11597;DHT22;5854;48.072;16.286;2022-07-01T12:05:39;34.30;33.60
11597;DHT22;5854;48.072;16.286;2022-07-01T12:08:07;33.80;34.60
11597;DHT22;5854;48.072;16.286;2022-07-01T12:10:34;33.70;35.20
11597;DHT22;5854;48.072;16.286;2022-07-01T12:13:20;34.90;33.50
11597;DHT22;5854;48.072;16.286;2022-07-01T12:15:47;34.40;33.30
11597;DHT22;5854;48.072;16.286;2022-07-01T12:18:16;33.20;35.40
11597;DHT22;5854;48.072;16.286;2022-07-01T12:20:53;32.70;37.00
11597;DHT22;5854;48.072;16.286;2022-07-01T12:23:21;32.30;37.40
11597;DHT22;5854;48.072;16.286;2022-07-01T12:25:49;32.00;38.60
11597;DHT22;5854;48.072;16.286;2022-07-01T12:28:26;31.90;38.00
11597;DHT22;5854;48.072;16.286;2022-07-01T12:31:02;31.80;37.80
11597;DHT22;5854;48.072;16.286;2022-07-01T12:33:34;31.80;38.40
11597;DHT22;5854;48.072;16.286;2022-07-01T12:36:03;32.00;38.80
11597;DHT22;5854;48.072;16.286;2022-07-01T12:38:31;31.70;38.20
11597;DHT22;5854;48.072;16.286;2022-07-01T12:40:58;31.90;38.60
11597;DHT22;5854;48.072;16.286;2022-07-01T12:43:27;32.50;38.10
11597;DHT22;5854;48.072;16.286;2022-07-01T12:45:57;32.60;37.40
11597;DHT22;5854;48.072;16.286;2022-07-01T12:48:25;32.40;37.40
11597;DHT22;5854;48.072;16.286;2022-07-01T12:50:55;32.00;38.50
11597;DHT22;5854;48.072;16.286;2022-07-01T12:53:25;32.00;38.00
11597;DHT22;5854;48.072;16.286;2022-07-01T12:55:55;31.70;38.30
11597;DHT22;5854;48.072;16.286;2022-07-01T12:58:25;31.80;38.70
11597;DHT22;5854;48.072;16.286;2022-07-01T13:00:54;31.90;38.20
11597;DHT22;5854;48.072;16.286;2022-07-01T13:03:24;31.70;38.20
11597;DHT22;5854;48.072;16.286;2022-07-01T13:05:55;31.50;38.00
11597;DHT22;5854;48.072;16.286;2022-07-01T13:08:23;31.20;38.90
11597;DHT22;5854;48.072;16.286;2022-07-01T13:10:50;31.00;40.10
11597;DHT22;5854;48.072;16.286;2022-07-01T13:13:17;31.10;40.20
11597;DHT22;5854;48.072;16.286;2022-07-01T13:18:17;31.90;39.00
11597;DHT22;5854;48.072;16.286;2022-07-01T13:20:44;32.00;40.10
11597;DHT22;5854;48.072;16.286;2022-07-01T13:23:14;31.90;39.00
11597;DHT22;5854;48.072;16.286;2022-07-01T13:25:41;31.60;39.40
11597;DHT22;5854;48.072;16.286;2022-07-01T13:28:08;31.60;39.60
11597;DHT22;5854;48.072;16.286;2022-07-01T13:30:36;31.50;40.00
11597;DHT22;5854;48.072;16.286;2022-07-01T13:33:04;31.30;40.10
11597;DHT22;5854;48.072;16.286;2022-07-01T13:35:33;31.30;40.00
11597;DHT22;5854;48.072;16.286;2022-07-01T13:38:00;31.20;40.20
11597;DHT22;5854;48.072;16.286;2022-07-01T13:40:29;31.00;40.00
11597;DHT22;5854;48.072;16.286;2022-07-01T13:42:59;30.90;40.00
11597;DHT22;5854;48.072;16.286;2022-07-01T13:45:34;30.90;40.40
11597;DHT22;5854;48.072;16.286;2022-07-01T13:50:40;30.80;40.40
11597;DHT22;5854;48.072;16.286;2022-07-01T13:53:08;30.70;40.90
11597;DHT22;5854;48.072;16.286;2022-07-01T13:55:40;30.40;41.50
11597;DHT22;5854;48.072;16.286;2022-07-01T13:58:12;30.50;41.40
11597;DHT22;5854;48.072;16.286;2022-07-01T14:05:48;31.30;40.60
11597;DHT22;5854;48.072;16.286;2022-07-01T14:08:16;31.60;41.20
11597;DHT22;5854;48.072;16.286;2022-07-01T14:10:45;31.80;39.80
11597;DHT22;5854;48.072;16.286;2022-07-01T14:13:12;31.80;39.20
11597;DHT22;5854;48.072;16.286;2022-07-01T14:15:42;31.90;39.10
11597;DHT22;5854;48.072;16.286;2022-07-01T14:18:09;32.00;39.00
11597;DHT22;5854;48.072;16.286;2022-07-01T14:20:37;31.90;39.50
11597;DHT22;5854;48.072;16.286;2022-07-01T14:23:05;32.10;39.40
11597;DHT22;5854;48.072;16.286;2022-07-01T14:25:33;32.40;38.30
11597;DHT22;5854;48.072;16.286;2022-07-01T14:28:01;32.40;37.80
11597;DHT22;5854;48.072;16.286;2022-07-01T14:30:29;32.30;38.60
11597;DHT22;5854;48.072;16.286;2022-07-01T14:32:56;32.20;39.20
11597;DHT22;5854;48.072;16.286;2022-07-01T14:35:23;32.40;38.70
11597;DHT22;5854;48.072;16.286;2022-07-01T14:37:50;32.40;39.00
11597;DHT22;5854;48.072;16.286;2022-07-01T14:40:17;32.60;38.50
11597;DHT22;5854;48.072;16.286;2022-07-01T14:42:45;32.60;38.30
11597;DHT22;5854;48.072;16.286;2022-07-01T14:45:14;32.60;38.30
11597;DHT22;5854;48.072;16.286;2022-07-01T14:47:41;32.60;37.90
11597;DHT22;5854;48.072;16.286;2022-07-01T14:50:09;32.90;37.90
11597;DHT22;5854;48.072;16.286;2022-07-01T14:52:37;32.90;37.70
11597;DHT22;5854;48.072;16.286;2022-07-01T14:55:05;32.80;37.10
11597;DHT22;5854;48.072;16.286;2022-07-01T14:57:34;32.70;38.00
11597;DHT22;5854;48.072;16.286;2022-07-01T15:00:01;32.80;37.50
11597;DHT22;5854;48.072;16.286;2022-07-01T15:02:30;32.70;36.70
11597;DHT22;5854;48.072;16.286;2022-07-01T15:04:57;32.60;37.40
11597;DHT22;5854;48.072;16.286;2022-07-01T15:07:25;32.60;37.10
11597;DHT22;5854;48.072;16.286;2022-07-01T15:09:54;32.70;36.60
11597;DHT22;5854;48.072;16.286;2022-07-01T15:12:22;32.60;36.90
11597;DHT22;5854;48.072;16.286;2022-07-01T15:14:49;32.80;36.40
11597;DHT22;5854;48.072;16.286;2022-07-01T15:17:16;32.60;35.40
11597;DHT22;5854;48.072;16.286;2022-07-01T15:19:44;32.60;36.70
11597;DHT22;5854;48.072;16.286;2022-07-01T15:22:11;32.60;37.00
11597;DHT22;5854;48.072;16.286;2022-07-01T15:24:39;32.50;36.00
11597;DHT22;5854;48.072;16.286;2022-07-01T15:27:06;32.50;35.60
11597;DHT22;5854;48.072;16.286;2022-07-01T15:29:34;32.40;34.90
11597;DHT22;5854;48.072;16.286;2022-07-01T15:32:02;32.40;37.20
11597;DHT22;5854;48.072;16.286;2022-07-01T15:34:29;32.70;35.90
11597;DHT22;5854;48.072;16.286;2022-07-01T15:36:58;32.80;35.60
11597;DHT22;5854;48.072;16.286;2022-07-01T15:39:25;32.80;35.10
11597;DHT22;5854;48.072;16.286;2022-07-01T15:41:53;32.80;36.00
11597;DHT22;5854;48.072;16.286;2022-07-01T15:44:21;32.90;35.90
11597;DHT22;5854;48.072;16.286;2022-07-01T15:46:48;32.90;35.80
11597;DHT22;5854;48.072;16.286;2022-07-01T15:49:15;32.80;35.40
11597;DHT22;5854;48.072;16.286;2022-07-01T15:51:42;32.60;36.10
11597;DHT22;5854;48.072;16.286;2022-07-01T15:54:11;32.60;36.50
11597;DHT22;5854;48.072;16.286;2022-07-01T15:56:38;32.60;36.90
11597;DHT22;5854;48.072;16.286;2022-07-01T15:59:05;32.40;37.60
11597;DHT22;5854;48.072;16.286;2022-07-01T16:01:32;32.50;37.60
11597;DHT22;5854;48.072;16.286;2022-07-01T16:03:59;32.10;37.90
11597;DHT22;5854;48.072;16.286;2022-07-01T16:06:27;32.00;38.20
11597;DHT22;5854;48.072;16.286;2022-07-01T16:08:57;32.00;38.20
11597;DHT22;5854;48.072;16.286;2022-07-01T16:11:31;31.90;38.40
11597;DHT22;5854;48.072;16.286;2022-07-01T16:13:58;31.90;38.10
11597;DHT22;5854;48.072;16.286;2022-07-01T16:16:31;31.60;39.50
11597;DHT22;5854;48.072;16.286;2022-07-01T16:19:01;31.60;39.00
11597;DHT22;5854;48.072;16.286;2022-07-01T16:21:30;31.40;39.40
11597;DHT22;5854;48.072;16.286;2022-07-01T16:23:57;31.30;39.40
11597;DHT22;5854;48.072;16.286;2022-07-01T16:26:27;31.30;39.50
11597;DHT22;5854;48.072;16.286;2022-07-01T16:28:55;30.90;39.90
11597;DHT22;5854;48.072;16.286;2022-07-01T16:31:22;30.90;39.70
11597;DHT22;5854;48.072;16.286;2022-07-01T16:33:50;30.20;41.10
11597;DHT22;5854;48.072;16.286;2022-07-01T16:36:19;29.90;41.10
11597;DHT22;5854;48.072;16.286;2022-07-01T16:38:55;29.90;41.90
11597;DHT22;5854;48.072;16.286;2022-07-01T16:41:38;29.80;42.50
11597;DHT22;5854;48.072;16.286;2022-07-01T16:44:10;29.30;43.10
11597;DHT22;5854;48.072;16.286;2022-07-01T16:46:41;29.40;42.50
11597;DHT22;5854;48.072;16.286;2022-07-01T16:49:11;29.50;42.40
11597;DHT22;5854;48.072;16.286;2022-07-01T16:51:43;29.20;41.20
11597;DHT22;5854;48.072;16.286;2022-07-01T16:54:13;28.90;41.90
11597;DHT22;5854;48.072;16.286;2022-07-01T16:56:50;29.10;42.10
11597;DHT22;5854;48.072;16.286;2022-07-01T16:59:20;29.50;38.60
11597;DHT22;5854;48.072;16.286;2022-07-01T17:01:48;28.80;40.50
11597;DHT22;5854;48.072;16.286;2022-07-01T17:04:17;28.40;41.60
11597;DHT22;5854;48.072;16.286;2022-07-01T17:06:45;28.50;41.50
11597;DHT22;5854;48.072;16.286;2022-07-01T17:09:15;28.50;39.70
11597;DHT22;5854;48.072;16.286;2022-07-01T17:11:42;28.00;41.10
11597;DHT22;5854;48.072;16.286;2022-07-01T17:14:12;27.60;41.50
11597;DHT22;5854;48.072;16.286;2022-07-01T17:16:40;28.20;43.70
11597;DHT22;5854;48.072;16.286;2022-07-01T17:19:08;28.40;42.40
11597;DHT22;5854;48.072;16.286;2022-07-01T17:21:37;28.50;41.40
11597;DHT22;5854;48.072;16.286;2022-07-01T17:24:08;28.60;41.40
11597;DHT22;5854;48.072;16.286;2022-07-01T17:26:42;27.90;41.60
11597;DHT22;5854;48.072;16.286;2022-07-01T17:29:19;28.00;41.90
11597;DHT22;5854;48.072;16.286;2022-07-01T17:31:52;27.80;39.50